Griddlers Könyvek

Nyomtatás

Amikor könyvet nyomtatsz (print), néhány beállítást esetleg meg kell változtatnod az Acrobat Reader-ben. Miután rákattintottál a "Print"-re, győződj meg, hogy a következők be vannak állítva:

1) Oldal méretének változtatása (Page Scalling): None-nincs
2) Automatikus elforgatás és középre rendezés (Auto-Rotate and Center): bejelölni Checked
3) Papírforrás választása PDF oldal nagyság alapján (Choose Paper Source by PDF page size):nem kell bejelölni - Unchecked
PostScript Printer nyomtatóknák: Kattintani az Advanced-re és bejelölni X-szel Nyomtatás képként(Print as Image).

Get Acrobat Reader A nyomtatáshoz és megtekintéshez Acrobat Reader-re (6-os változatra vagy újabbra) van szükség.

This book is sold and delivered by company Amazon. Actual price may be different as shown here. It depends on local tax and actual discount.

Puzzles

Szám Leírás Szerző Dátum Méret Pontok Megoldva
661 Church woa 2002.06.15. 25x25x2 f 5 694
1111 Tuxedo woa 2002.08.24. 20x30x2 f 1 819
2092 On the Meadow Janko 2002.10.27. 45x30x2 f 34 966
2722 Peace maarten001 2002.12.31. 20x20x2 f 3 807
2739 Candle slniecko 2003.01.01. 25x25x2 f 22 569
2936 Gorilla piranha 2003.01.11. 25x25x2 f 1 836
3244 Shirt tono 2003.02.06. 25x25x2 f 24 886
4902 Horse tono 2003.06.09. 20x20x2 f 2 751
5623 Musical Instrument Sax tono 2003.08.12. 15x20x2 f 1 608
5633 Artichoke elad 2003.08.13. 40x50x2 f 258 784
6199 Halloween Countdown: 26 Days to Go! wiggles 2003.10.05. 50x50x2 f 18 745
7957 House Guy 2004.02.24. 10x15x2 f 464
8015 Rappelling guru7 2004.02.26. 30x40x2 f 36 815
8800 Oil Burner Robyne_Hud 2004.03.30. 20x30x2 f 16 460
9443 Minimalism: Follow Me powsinoga 2004.04.25. 5x5x2 f 4
10726 Road Sign: Rocks booglemonster 2004.06.17. 50x50x2 f 629 399
11138 Fly shalby 2004.07.12. 20x20x2 f 2 953
11989 Minimalism: Giraffe annnie2 2004.08.29. 5x5x2 f 2
15992 Goat bujia 2005.01.13. 15x20x2 f 762
20454 Have a Light? elimaor 2005.04.07. 50x30x2 f 168 545
20511 Playing Soccer elimaor 2005.04.08. 20x30x2 f 32 768
21656 Ice Cream elimaor 2005.05.04. 15x15x2 f 1 071
22462 Guitar ik-is-gek 2005.05.22. 25x10x2 f 37
23507 Trophy lucy143 2005.06.26. 10x15x2 f 176
23578 Gramophone twoznia 2005.06.28. 20x20x2 f 21 025
23590 Bird on a Wheel solo222 2005.06.28. 10x10x2 f 124
23894 Stopwatch twoznia 2005.07.08. 15x20x2 f 15 185
24449 Photo Camera twoznia 2005.07.23. 20x20x2 f 11 651
25216 Minimalism: Why? twoznia 2005.08.12. 5x5x2 f 3
25696 Fountain twoznia 2005.08.28. 20x20x2 f 10 112
26078 Trumpet twoznia 2005.09.23. 50x20x2 f 13 715
26178 Goofy twoznia 2005.09.28. 30x40x2 f 95 684
26259 Yabba Dabba Doooo! twoznia 2005.10.02. 35x50x2 f 418 942
26289 Minimalism: Weight twoznia 2005.10.03. 5x5x2 f 2
26334 Horse ireneh 2005.10.04. 45x30x2 f 3 064
26846 Girl with a Hat lichee 2005.10.17. 50x50x2 f 257 099
27006 Minimalism: Fence twoznia 2005.10.18. 5x5x2 f 9
28508 Farmer twoznia 2005.12.03. 45x30x2 f 208 219
28527 Minimalism: Bat twoznia 2005.12.03. 5x5x2 f 4
28784 Minimalism: Viking twoznia 2005.12.11. 5x5x2 f 7
28848 Minimalism: Winner twoznia 2005.12.13. 5x5x2 f 10
29664 Minimalism: Candy twoznia 2006.01.08. 5x5x2 f 8
29700 Duck twoznia 2006.01.09. 20x20x2 f 1 722
29919 Black Swan op1 2006.01.15. 50x50x2 f 31 072
30949 Minimalism: Swimmer twoznia 2006.02.18. 5x5x2 f 6
31171 Minimalism: Carriage twoznia 2006.02.26. 5x5x2 f 4
31296 Minimalism: Billiard Ball twoznia 2006.02.28. 5x5x2 f 1
31315 Minimalism: Bye! kissyrich 2006.03.01. 5x5x2 f 4
31477 Minimalism: Bug twoznia 2006.03.06. 5x5x2 f 6
31478 Minimalism: Little House twoznia 2006.03.06. 5x5x2 f 2
31489 Minimalism: Fishing kissyrich 2006.03.07. 5x5x2 f 3
31492 The Michelin Man f1comp 2006.03.08. 40x50x2 f 437 977
31601 Minimalism: Crab twoznia 2006.03.10. 5x5x2 f 17
31602 Minimalism: Jar twoznia 2006.03.10. 5x5x2 f 7
32309 Minimalism: Flower _unhuman_ 2006.04.04. 5x5x2 f 5
32705 Minimalism: Piano _marre_ 2006.04.19. 5x5x2 f 6
32813 Minimalism: Umbrella fluffguf 2006.04.22. 5x5x2 f 2
33155 Minimalism: Buckle Ne_Plus_Ultra 2006.05.02. 5x5x2 f 9
33388 Minimalism: Cactus Ne_Plus_Ultra 2006.05.09. 5x5x2 f 9
33656 Minimalism: Do twoznia 2006.05.18. 5x5x2 f 4
33681 Olifant Baby_love84 2006.05.20. 20x20x2 f 4 581
34450 Scales moher 2006.06.11. 50x50x2 f 703 115
36832 Cat and Mouse leonita 2006.08.12. 40x20x2 f 6 294
38293 Three O'clock marlonbraga 2006.09.22. 15x15x2 f 1 903
39112 Best Friends mmp 2006.10.20. 35x35x2 f 22 722
39321 Family Portrait hingly 2006.10.26. 50x50x2 f 693 148
39448 Wave hingly 2006.11.01. 50x50x2 f 206 607
39548 Teddy Bear tbonneval 2006.11.06. 30x30x2 f 12 157
40396 Beach Scene gheki 2006.12.01. 15x15x2 f 695
40421 Baby mustafademirbas 2006.12.03. 50x50x2 f 598 891
40575 Deer jenny1 2006.12.07. 40x45x2 f 46 586
40897 Mickey mndjhrmn 2006.12.24. 50x50x2 f 362 113
41071 They're Gonna Have a Baby! xiayu 2006.12.31. 35x35x2 f 436 102
41250 Thank You for the Flower mustafademirbas 2007.01.07. 50x50x2 f 162 304
41268 Love Angel mustafademirbas 2007.01.07. 50x50x2 f 45 215
41354 Windsurfing twoznia 2007.01.08. 10x10x2 f 155
41379 Man in the Moon Kyraath 2007.01.09. 35x35x2 f 252 727
41442 A Night Out jjan 2007.01.10. 50x30x2 f 196 758
41654 It's Raining marielle 2007.01.16. 15x15x2 f 336
42859 Japanese Temple xiayu 2007.02.18. 30x30x2 f 169 562
42860 Shirt xiayu 2007.02.18. 30x30x2 f 101 856
42910 Fire Hydrant xiayu 2007.02.19. 20x30x2 f 64 051
43015 Dolphin granulocyt 2007.02.21. 15x15x2 f 484
43082 Eagle mustafademirbas 2007.02.25. 50x50x2 f 380 655
43134 Bird hibrahimozer 2007.02.26. 35x35x2 f 8 913
43518 Panda pendexj 2007.03.11. 15x15x2 f 1 529
43612 Ranger starch 2007.03.13. 50x50x2 f 74 727
43743 Motorbike starch 2007.03.15. 40x15x2 f 3 734
44143 Pooh Oskar 2007.03.28. 50x50x2 f 1 697 945
44358 Limousine mustafademirbas 2007.04.05. 50x16x2 f 3 473
44708 Farm House mustafademirbas 2007.04.16. 50x50x2 f 658 637
45086 Boy with Bird carobeekman 2007.04.26. 15x15x2 f 2 174
45568 Fish solo222 2007.05.09. 15x15x2 f 1 107
45570 Speaker solo222 2007.05.09. 10x10x2 f 74
45599 Dog solo222 2007.05.10. 10x10x2 f 170
45716 Pram solo222 2007.05.13. 15x15x2 f 261
45718 Spray solo222 2007.05.13. 10x10x2 f 185
45906 Toucan solo222 2007.05.18. 10x10x2 f 180
45909 Parrot solo222 2007.05.18. 15x15x2 f 1 375
45953 Cocktail mustafademirbas 2007.05.20. 50x50x2 f 353 320
46246 Hot Kettle xiayu 2007.05.24. 15x15x2 f 4 907
46508 Ship starch 2007.06.03. 50x30x2 f 28 217
46581 Dog gemini 2007.06.04. 30x30x2 f 58 688
46692 Bowling solo222 2007.06.05. 10x20x2 f 467
46771 Swan solo222 2007.06.08. 15x15x2 f 125
47000 Bear solo222 2007.06.12. 15x20x2 f 14 784
47084 Eagle mustafademirbas 2007.06.13. 50x50x2 f 863 624
47446 Horse mayanas 2007.06.24. 30x30x2 f 16 118
47496 Spider Lupos 2007.06.25. 30x30x2 f 82 257
47746 Cherries solo222 2007.07.01. 15x10x2 f 466
47895 Windmill mustafademirbas 2007.07.05. 50x50x2 f 2 562 318
48038 Capricorn Lupos 2007.07.09. 40x40x2 f 93 399
48101 Elephant semdem 2007.07.10. 40x25x2 f 7 246
48317 Wolf Lupos 2007.07.17. 40x45x2 f 85 990
48377 Swing solo222 2007.07.18. 10x10x2 f 158
48395 Dog abrek 2007.07.19. 50x30x2 f 109 146
48396 Relax abrek 2007.07.19. 40x15x2 f 82 190
48432 Cock-a-Doodle-Doo solo222 2007.07.20. 10x15x2 f 543
48471 Dinner is Served solo222 2007.07.22. 10x15x2 f 75
48693 Piano abrek 2007.07.29. 25x10x2 f 356
48694 Tractor solo222 2007.07.29. 15x10x2 f 192
48795 Sock solo222 2007.08.01. 10x10x2 f 102
48829 Crane halbehuitema 2007.08.02. 30x30x2 f 11 033
48884 Tired Eilleen 2007.08.05. 35x50x2 f 19 348
49048 Sewing Machine solo222 2007.08.09. 15x10x2 f 143
49248 I Spy Eilleen 2007.08.17. 25x10x2 f 830
49744 Bird House oko 2007.08.29. 50x50x2 f 2 431 693
49931 Cat arielxx 2007.09.02. 10x15x2 f 319
50020 Drinking Heracleum 2007.09.04. 10x15x2 f 114
50184 Manic Miner Heracleum 2007.09.09. 8x16x2 f 300
50184 Manic Miner Heracleum 2007.09.09. 8x16x2 f 300
50210 Raccoon oko 2007.09.10. 45x45x2 f 36 522
50255 Toilet Paper oko 2007.09.11. 45x45x2 f 168 114
50335 After the Red Baron oko 2007.09.12. 40x40x2 f 519 772
50350 Penguin solo222 2007.09.12. 10x20x2 f 541
50450 Halloween Sideburn 2007.09.16. 50x45x2 f 309 767
50572 Pear solo222 2007.09.18. 10x15x2 f 603
50941 School Bus solo222 2007.09.27. 25x10x2 f 364
50942 Seahorse solo222 2007.09.27. 10x20x2 f 344
50947 Night Table solo222 2007.09.28. 10x20x2 f 763
51006 Palm tluktnie 2007.09.30. 30x30x2 f 54 990
51220 Lighthouse solo222 2007.10.04. 10x15x2 f 193
51816 Road solo222 2007.10.17. 15x10x2 f 148
52039 Joan of Arc - Riding a Horse Leonerep 2007.10.22. 50x47x2 f 358 987
52145 Avocado oko 2007.10.24. 40x25x2 f 124 435
52432 Little Devil oko 2007.10.30. 50x50x2 f 1 208 688
--- Playing elimaor 2007.09.23. 60x15x2 f 236 940 ---
--- Danger liri748 2007.12.11. 70x30x2 f 992 438 ---
--- Dinosaur elimaor 2007.09.23. 70x30x2 f 888 292 ---
--- Joe Paterno mooseroo 2007.12.11. 50x75x2 f 133 076 ---
1248 Joe Dalton esra 2005.03.16. (20+26)x(18+19)x2 27 473
1862 Checkmate bilbobilbo 2005.12.11. (25+25)x(17+22)x2 15 644
2047 Reversed Women amsterdam 2006.01.13. (18+24)x(31+10)x2 8 952
3456 Cracow: Barbakan agadir 2006.12.19. (20+20)x(20+20)x2 57 430
3907 Long Tail Mouse koko 2007.04.08. (25+25)x(25+25)x2 209 027
4491 Jan koko 2007.09.25. (8+35)x(32+18)x2 156 789
CopyrightAz iGridd Könyvek tartalma szerzői jog által védett. A könyvek kizárólag személyes használatra vannak, kereskedelmi felhasználásuk tiltott. Bővebb információ (angol nyelven): Oldal Használati Feltételei.